KCBF/CBF METAR and TAF weather

Enter ICAO airport designator
Station Type Date Time Source
KCBF METAR 2021/09/20 06:15 UTC NOAA

KCBF 200615Z AUTO 16013G18KT 10SM CLR 22/18 A2975 RMK AO2


Station Type Date Time Source
KCBF Decoded METAR 2021/09/20 06:15 UTC NOAA

Council Bluffs, IA, United States (KCBF) 41-16N 095-46W
Sep 20, 2021 - 02:15 AM EDT / 2021.09.20 0615 UTC
Wind: from the SSE (160 degrees) at 15 MPH (13 KT) gusting to 21 MPH (18 KT):0
Visibility: 10 mile(s):0
Sky conditions: clear
Temperature: 71 F (22 C)
Dew Point: 64 F (18 C)
Relative Humidity: 78%
Pressure (altimeter): 29.75 in. Hg (1007 hPa)
ob: KCBF 200615Z AUTO 16013G18KT 10SM CLR 22/18 A2975 RMK AO2
cycle: 6

Station Type Date Time Source
KCBF TAF UTC NOAA

Error!

Example: see airport list